createdAt,value
2019-02-07T00:06:16.653Z,20.40
2019-02-07T00:16:18.610Z,20.13
2019-02-07T00:26:20.995Z,19.73
2019-02-07T00:36:23.439Z,18.40
2019-02-07T00:46:25.664Z,18.23
2019-02-07T00:56:27.602Z,18.82
2019-02-07T01:06:29.901Z,21.02
2019-02-07T01:16:31.894Z,19.95
2019-02-07T01:26:33.922Z,19.95
2019-02-07T01:36:36.152Z,19.45
2019-02-07T01:46:38.902Z,17.80
2019-02-07T01:56:40.866Z,20.07
2019-02-07T02:06:43.043Z,17.27
2019-02-07T02:16:45.225Z,18.92
2019-02-07T02:26:47.662Z,18.77
2019-02-07T02:36:52.774Z,20.27
2019-02-07T02:46:54.902Z,19.15
2019-02-07T02:56:56.844Z,19.98
2019-02-07T03:06:58.870Z,20.65
2019-02-07T03:17:01.280Z,20.80
2019-02-07T03:27:03.538Z,19.70
2019-02-07T03:37:05.873Z,20.52
2019-02-07T03:47:07.778Z,20.77
2019-02-07T03:57:10.128Z,19.37
2019-02-07T04:07:12.189Z,19.42
2019-02-07T04:17:14.342Z,19.48
2019-02-07T04:27:16.275Z,20.00
2019-02-07T04:37:18.520Z,19.52
2019-02-07T04:47:20.443Z,18.62
2019-02-07T04:57:22.410Z,19.10
2019-02-07T05:07:24.555Z,18.77
2019-02-07T05:17:26.735Z,18.90
2019-02-07T05:27:29.000Z,19.35
2019-02-07T05:37:31.255Z,20.00
2019-02-07T05:47:33.390Z,18.02
2019-02-07T05:57:35.379Z,17.62
2019-02-07T06:07:37.303Z,18.20
2019-02-07T06:17:39.554Z,18.57
2019-02-07T06:27:41.501Z,17.05
2019-02-07T06:37:43.618Z,16.85
2019-02-07T06:47:45.650Z,18.27
2019-02-07T06:57:47.999Z,17.75
2019-02-07T07:07:50.003Z,17.57
2019-02-07T07:17:54.110Z,16.97
2019-02-07T07:27:56.163Z,18.20
2019-02-07T07:37:58.385Z,18.17
2019-02-07T07:48:00.680Z,17.07
2019-02-07T07:58:03.067Z,16.55
2019-02-07T08:08:05.103Z,14.73
2019-02-07T08:18:07.085Z,12.58
2019-02-07T08:28:09.418Z,11.18
2019-02-07T08:38:11.413Z,9.63
2019-02-07T08:48:13.392Z,9.63
2019-02-07T08:58:15.359Z,7.65
2019-02-07T09:08:17.390Z,1.25
2019-02-07T09:18:19.370Z,1.92
2019-02-07T09:28:21.326Z,2.62
2019-02-07T09:38:23.307Z,4.15
2019-02-07T09:48:25.318Z,5.83
2019-02-07T09:58:27.263Z,6.20
2019-02-07T10:08:29.216Z,7.20
2019-02-07T10:18:33.326Z,7.23
2019-02-07T10:28:35.847Z,6.45
2019-02-07T10:38:39.920Z,6.00
2019-02-07T10:48:44.491Z,7.30
2019-02-07T10:58:46.442Z,6.67
2019-02-07T11:08:48.408Z,5.77
2019-02-07T11:18:55.630Z,7.80
2019-02-07T11:28:54.443Z,5.67
2019-02-07T11:38:56.560Z,5.83
2019-02-07T11:49:06.485Z,5.90
2019-02-07T11:59:03.449Z,5.60
2019-02-07T12:09:08.403Z,7.70
2019-02-07T12:19:17.767Z,5.65
2019-02-07T12:29:33.616Z,5.40
2019-02-07T12:39:36.307Z,4.35
2019-02-07T12:49:38.402Z,3.62
2019-02-07T12:59:40.379Z,4.53
2019-02-07T13:09:42.858Z,5.35
2019-02-07T13:19:45.486Z,3.73
2019-02-07T13:29:47.444Z,4.08
2019-02-07T13:39:49.435Z,3.30
2019-02-07T13:49:52.362Z,3.65
2019-02-07T13:59:54.639Z,4.12
2019-02-07T14:09:56.581Z,4.05
2019-02-07T14:20:03.729Z,3.22
2019-02-07T14:30:03.171Z,2.58
2019-02-07T14:40:07.495Z,2.70
2019-02-07T14:50:14.979Z,2.90
2019-02-07T15:00:17.408Z,2.58
2019-02-07T15:10:38.790Z,3.25
2019-02-07T15:20:40.794Z,3.40
2019-02-07T15:30:42.782Z,4.05
2019-02-07T15:40:45.395Z,2.98
2019-02-07T15:50:47.670Z,9.73
2019-02-07T16:00:49.619Z,4.03
2019-02-07T16:10:51.930Z,7.47
2019-02-07T16:20:53.917Z,5.53
2019-02-07T16:30:56.091Z,2.92
2019-02-07T16:40:59.139Z,5.53
2019-02-07T16:51:03.181Z,2.58
2019-02-07T17:01:06.922Z,2.08
2019-02-07T17:11:09.002Z,2.87
2019-02-07T17:21:12.922Z,2.75
2019-02-07T17:31:15.292Z,2.95
2019-02-07T17:41:17.567Z,3.15
2019-02-07T17:51:23.351Z,2.90
2019-02-07T18:01:23.287Z,3.42
2019-02-07T18:11:25.674Z,2.85
2019-02-07T18:21:33.921Z,2.87
2019-02-07T18:31:31.400Z,2.30
2019-02-07T18:41:33.363Z,2.50
2019-02-07T18:51:45.205Z,1.75
2019-02-07T19:01:39.152Z,2.12
2019-02-07T19:11:41.134Z,2.10
2019-02-07T19:21:43.798Z,2.22
2019-02-07T19:31:45.911Z,2.37
2019-02-07T19:41:48.659Z,2.30
2019-02-07T19:51:50.745Z,2.00
2019-02-07T20:01:52.934Z,2.40
2019-02-07T20:11:55.023Z,1.82
2019-02-07T20:21:57.111Z,1.55
2019-02-07T20:31:59.642Z,2.40
2019-02-07T20:42:01.855Z,2.47
2019-02-07T20:52:04.355Z,2.22
2019-02-07T21:02:06.311Z,2.33
2019-02-07T21:12:08.427Z,2.65
2019-02-07T21:22:10.474Z,2.62
2019-02-07T21:32:13.164Z,2.67
2019-02-07T21:42:15.312Z,2.25
2019-02-07T21:52:17.458Z,2.10
2019-02-07T22:02:20.319Z,2.00
2019-02-07T22:12:22.620Z,2.10
2019-02-07T22:22:24.599Z,2.67
2019-02-07T22:32:26.923Z,2.05
2019-02-07T22:42:29.240Z,1.65
2019-02-07T22:52:31.566Z,2.60
2019-02-07T23:02:33.729Z,1.70
2019-02-07T23:12:36.116Z,2.22
2019-02-07T23:22:38.350Z,2.42
2019-02-07T23:32:40.727Z,1.95
2019-02-07T23:42:43.099Z,2.15
2019-02-07T23:52:45.065Z,1.80
